sensor_id;sensor_type;location;lat;lon;timestamp;P1;durP1;ratioP1;P2;durP2;ratioP2
20314;SDS011;10315;50.958;13.080;2023-05-07T00:05:21;22.83;;;10.13;;
20314;SDS011;10315;50.958;13.080;2023-05-07T00:15:24;25.60;;;11.97;;
20314;SDS011;10315;50.958;13.080;2023-05-07T00:25:26;29.13;;;12.43;;
20314;SDS011;10315;50.958;13.080;2023-05-07T00:35:29;27.37;;;14.23;;
20314;SDS011;10315;50.958;13.080;2023-05-07T00:45:30;31.60;;;14.90;;
20314;SDS011;10315;50.958;13.080;2023-05-07T00:55:34;29.97;;;14.13;;
20314;SDS011;10315;50.958;13.080;2023-05-07T01:05:37;31.17;;;14.07;;
20314;SDS011;10315;50.958;13.080;2023-05-07T01:15:40;34.10;;;15.13;;
20314;SDS011;10315;50.958;13.080;2023-05-07T01:25:43;30.87;;;13.83;;
20314;SDS011;10315;50.958;13.080;2023-05-07T01:35:52;34.33;;;14.33;;
20314;SDS011;10315;50.958;13.080;2023-05-07T01:45:56;35.87;;;15.70;;
20314;SDS011;10315;50.958;13.080;2023-05-07T01:55:59;37.60;;;16.53;;
20314;SDS011;10315;50.958;13.080;2023-05-07T02:06:02;37.77;;;16.33;;
20314;SDS011;10315;50.958;13.080;2023-05-07T02:16:04;34.83;;;15.77;;
20314;SDS011;10315;50.958;13.080;2023-05-07T02:26:08;34.53;;;15.50;;
20314;SDS011;10315;50.958;13.080;2023-05-07T02:36:10;33.07;;;15.37;;
20314;SDS011;10315;50.958;13.080;2023-05-07T02:46:13;33.60;;;14.27;;
20314;SDS011;10315;50.958;13.080;2023-05-07T02:56:15;36.10;;;15.17;;
20314;SDS011;10315;50.958;13.080;2023-05-07T03:06:18;32.40;;;14.40;;
20314;SDS011;10315;50.958;13.080;2023-05-07T03:16:20;34.70;;;14.80;;
20314;SDS011;10315;50.958;13.080;2023-05-07T03:26:23;42.10;;;17.23;;
20314;SDS011;10315;50.958;13.080;2023-05-07T03:36:25;41.77;;;16.83;;
20314;SDS011;10315;50.958;13.080;2023-05-07T03:46:28;45.80;;;19.93;;
20314;SDS011;10315;50.958;13.080;2023-05-07T03:56:30;47.07;;;19.73;;
20314;SDS011;10315;50.958;13.080;2023-05-07T04:06:35;46.73;;;19.30;;
20314;SDS011;10315;50.958;13.080;2023-05-07T04:16:37;46.47;;;19.13;;
20314;SDS011;10315;50.958;13.080;2023-05-07T04:26:40;42.97;;;19.70;;
20314;SDS011;10315;50.958;13.080;2023-05-07T04:36:41;45.43;;;20.20;;
20314;SDS011;10315;50.958;13.080;2023-05-07T04:46:44;48.97;;;20.80;;
20314;SDS011;10315;50.958;13.080;2023-05-07T04:56:46;43.17;;;19.17;;
20314;SDS011;10315;50.958;13.080;2023-05-07T05:06:49;46.00;;;19.47;;
20314;SDS011;10315;50.958;13.080;2023-05-07T05:16:51;39.97;;;18.27;;
20314;SDS011;10315;50.958;13.080;2023-05-07T05:26:54;40.20;;;18.17;;
20314;SDS011;10315;50.958;13.080;2023-05-07T05:36:55;34.80;;;16.23;;
20314;SDS011;10315;50.958;13.080;2023-05-07T05:46:58;32.13;;;14.90;;
20314;SDS011;10315;50.958;13.080;2023-05-07T05:57:00;32.00;;;14.77;;
20314;SDS011;10315;50.958;13.080;2023-05-07T06:07:05;25.73;;;13.13;;
20314;SDS011;10315;50.958;13.080;2023-05-07T06:17:06;22.47;;;11.63;;
20314;SDS011;10315;50.958;13.080;2023-05-07T06:27:09;24.23;;;11.00;;
20314;SDS011;10315;50.958;13.080;2023-05-07T06:37:11;20.83;;;9.80;;
20314;SDS011;10315;50.958;13.080;2023-05-07T06:47:14;19.87;;;9.30;;
20314;SDS011;10315;50.958;13.080;2023-05-07T06:57:16;18.30;;;9.43;;
20314;SDS011;10315;50.958;13.080;2023-05-07T07:07:18;16.73;;;8.67;;
20314;SDS011;10315;50.958;13.080;2023-05-07T07:17:20;14.27;;;8.07;;
20314;SDS011;10315;50.958;13.080;2023-05-07T07:27:23;14.67;;;7.23;;
20314;SDS011;10315;50.958;13.080;2023-05-07T07:37:25;10.43;;;5.87;;
20314;SDS011;10315;50.958;13.080;2023-05-07T07:47:27;11.50;;;6.07;;
20314;SDS011;10315;50.958;13.080;2023-05-07T07:57:29;15.67;;;7.43;;
20314;SDS011;10315;50.958;13.080;2023-05-07T08:07:32;14.00;;;7.53;;
20314;SDS011;10315;50.958;13.080;2023-05-07T08:17:34;16.07;;;8.17;;
20314;SDS011;10315;50.958;13.080;2023-05-07T08:27:37;15.57;;;8.37;;
20314;SDS011;10315;50.958;13.080;2023-05-07T08:37:38;17.40;;;9.03;;
20314;SDS011;10315;50.958;13.080;2023-05-07T08:47:42;13.37;;;7.23;;
20314;SDS011;10315;50.958;13.080;2023-05-07T08:57:45;13.03;;;7.00;;
20314;SDS011;10315;50.958;13.080;2023-05-07T09:07:49;10.23;;;6.73;;
20314;SDS011;10315;50.958;13.080;2023-05-07T09:17:51;10.83;;;6.13;;
20314;SDS011;10315;50.958;13.080;2023-05-07T09:27:54;10.90;;;5.67;;
20314;SDS011;10315;50.958;13.080;2023-05-07T09:37:56;6.70;;;4.83;;
20314;SDS011;10315;50.958;13.080;2023-05-07T09:48:00;10.53;;;6.03;;
20314;SDS011;10315;50.958;13.080;2023-05-07T09:58:05;10.10;;;6.20;;
20314;SDS011;10315;50.958;13.080;2023-05-07T10:08:10;12.00;;;6.30;;
20314;SDS011;10315;50.958;13.080;2023-05-07T10:18:12;10.20;;;5.90;;
20314;SDS011;10315;50.958;13.080;2023-05-07T10:28:17;8.00;;;5.47;;
20314;SDS011;10315;50.958;13.080;2023-05-07T10:38:20;6.03;;;4.83;;
20314;SDS011;10315;50.958;13.080;2023-05-07T10:48:23;5.73;;;4.00;;
20314;SDS011;10315;50.958;13.080;2023-05-07T10:58:25;6.23;;;3.87;;
20314;SDS011;10315;50.958;13.080;2023-05-07T11:08:30;6.60;;;4.57;;
20314;SDS011;10315;50.958;13.080;2023-05-07T11:18:57;4.83;;;3.80;;
20314;SDS011;10315;50.958;13.080;2023-05-07T11:29:00;5.60;;;4.40;;
20314;SDS011;10315;50.958;13.080;2023-05-07T11:39:01;6.17;;;4.50;;
20314;SDS011;10315;50.958;13.080;2023-05-07T11:49:04;6.55;;;4.68;;
20314;SDS011;10315;50.958;13.080;2023-05-07T11:59:07;9.05;;;4.72;;
20314;SDS011;10315;50.958;13.080;2023-05-07T12:09:09;6.83;;;5.17;;
20314;SDS011;10315;50.958;13.080;2023-05-07T12:19:13;8.30;;;5.35;;
20314;SDS011;10315;50.958;13.080;2023-05-07T12:29:17;7.38;;;4.88;;
20314;SDS011;10315;50.958;13.080;2023-05-07T12:39:22;5.10;;;3.67;;
20314;SDS011;10315;50.958;13.080;2023-05-07T12:49:24;7.63;;;5.43;;
20314;SDS011;10315;50.958;13.080;2023-05-07T12:59:30;7.32;;;4.43;;
20314;SDS011;10315;50.958;13.080;2023-05-07T13:09:33;6.37;;;4.30;;
20314;SDS011;10315;50.958;13.080;2023-05-07T13:19:38;6.07;;;4.83;;
20314;SDS011;10315;50.958;13.080;2023-05-07T13:29:40;6.57;;;4.70;;
20314;SDS011;10315;50.958;13.080;2023-05-07T13:39:42;8.35;;;4.75;;
20314;SDS011;10315;50.958;13.080;2023-05-07T13:49:45;8.33;;;5.50;;
20314;SDS011;10315;50.958;13.080;2023-05-07T13:59:49;7.65;;;5.30;;
20314;SDS011;10315;50.958;13.080;2023-05-07T14:09:52;7.72;;;4.95;;
20314;SDS011;10315;50.958;13.080;2023-05-07T14:19:54;6.68;;;5.05;;
20314;SDS011;10315;50.958;13.080;2023-05-07T14:29:57;8.65;;;5.57;;
20314;SDS011;10315;50.958;13.080;2023-05-07T14:39:58;8.45;;;6.05;;
20314;SDS011;10315;50.958;13.080;2023-05-07T14:50:01;10.52;;;6.47;;
20314;SDS011;10315;50.958;13.080;2023-05-07T15:00:03;9.23;;;6.43;;
20314;SDS011;10315;50.958;13.080;2023-05-07T15:10:08;10.85;;;6.57;;
20314;SDS011;10315;50.958;13.080;2023-05-07T15:20:10;10.02;;;6.70;;
20314;SDS011;10315;50.958;13.080;2023-05-07T15:30:14;7.43;;;5.73;;
20314;SDS011;10315;50.958;13.080;2023-05-07T15:40:16;8.07;;;5.63;;
20314;SDS011;10315;50.958;13.080;2023-05-07T15:50:19;6.97;;;5.40;;
20314;SDS011;10315;50.958;13.080;2023-05-07T16:00:21;7.70;;;5.10;;
20314;SDS011;10315;50.958;13.080;2023-05-07T16:10:24;6.13;;;5.10;;
20314;SDS011;10315;50.958;13.080;2023-05-07T16:20:27;5.77;;;4.23;;
20314;SDS011;10315;50.958;13.080;2023-05-07T16:30:31;5.80;;;4.07;;
20314;SDS011;10315;50.958;13.080;2023-05-07T16:40:32;5.60;;;4.50;;
20314;SDS011;10315;50.958;13.080;2023-05-07T16:50:38;5.90;;;4.33;;
20314;SDS011;10315;50.958;13.080;2023-05-07T17:00:40;6.50;;;4.90;;
20314;SDS011;10315;50.958;13.080;2023-05-07T17:10:43;6.27;;;4.67;;
20314;SDS011;10315;50.958;13.080;2023-05-07T17:20:45;8.10;;;5.37;;
20314;SDS011;10315;50.958;13.080;2023-05-07T17:30:47;10.47;;;6.10;;
20314;SDS011;10315;50.958;13.080;2023-05-07T17:40:50;10.27;;;6.47;;
20314;SDS011;10315;50.958;13.080;2023-05-07T17:51:00;9.67;;;6.63;;
20314;SDS011;10315;50.958;13.080;2023-05-07T18:01:02;11.30;;;7.63;;
20314;SDS011;10315;50.958;13.080;2023-05-07T18:11:05;10.50;;;7.50;;
20314;SDS011;10315;50.958;13.080;2023-05-07T18:21:07;11.97;;;7.27;;
20314;SDS011;10315;50.958;13.080;2023-05-07T18:31:15;11.70;;;7.57;;
20314;SDS011;10315;50.958;13.080;2023-05-07T18:41:17;12.03;;;8.70;;
20314;SDS011;10315;50.958;13.080;2023-05-07T18:51:19;14.23;;;7.57;;
20314;SDS011;10315;50.958;13.080;2023-05-07T19:01:21;13.57;;;8.43;;
20314;SDS011;10315;50.958;13.080;2023-05-07T19:11:24;11.90;;;7.70;;
20314;SDS011;10315;50.958;13.080;2023-05-07T19:21:26;11.63;;;7.83;;
20314;SDS011;10315;50.958;13.080;2023-05-07T19:31:29;14.97;;;8.27;;
20314;SDS011;10315;50.958;13.080;2023-05-07T19:41:32;15.13;;;7.97;;
20314;SDS011;10315;50.958;13.080;2023-05-07T19:51:35;13.13;;;7.30;;
20314;SDS011;10315;50.958;13.080;2023-05-07T20:01:36;15.87;;;8.63;;
20314;SDS011;10315;50.958;13.080;2023-05-07T20:11:41;14.37;;;7.73;;
20314;SDS011;10315;50.958;13.080;2023-05-07T20:21:43;13.33;;;8.57;;
20314;SDS011;10315;50.958;13.080;2023-05-07T20:31:46;14.00;;;8.00;;
20314;SDS011;10315;50.958;13.080;2023-05-07T20:41:48;12.53;;;7.87;;
20314;SDS011;10315;50.958;13.080;2023-05-07T20:51:51;15.60;;;9.17;;
20314;SDS011;10315;50.958;13.080;2023-05-07T21:01:52;14.90;;;9.27;;
20314;SDS011;10315;50.958;13.080;2023-05-07T21:11:57;14.23;;;8.83;;
20314;SDS011;10315;50.958;13.080;2023-05-07T21:21:58;15.70;;;10.13;;
20314;SDS011;10315;50.958;13.080;2023-05-07T21:32:01;18.17;;;10.40;;
20314;SDS011;10315;50.958;13.080;2023-05-07T21:42:04;13.63;;;9.30;;
20314;SDS011;10315;50.958;13.080;2023-05-07T21:52:10;16.17;;;9.03;;
20314;SDS011;10315;50.958;13.080;2023-05-07T22:02:12;16.77;;;8.90;;
20314;SDS011;10315;50.958;13.080;2023-05-07T22:12:15;18.23;;;10.57;;
20314;SDS011;10315;50.958;13.080;2023-05-07T22:22:17;14.60;;;9.17;;
20314;SDS011;10315;50.958;13.080;2023-05-07T22:32:20;18.47;;;9.50;;
20314;SDS011;10315;50.958;13.080;2023-05-07T22:42:21;18.37;;;10.40;;
20314;SDS011;10315;50.958;13.080;2023-05-07T22:52:24;17.50;;;11.23;;
20314;SDS011;10315;50.958;13.080;2023-05-07T23:02:26;15.53;;;9.93;;
20314;SDS011;10315;50.958;13.080;2023-05-07T23:12:30;18.67;;;11.07;;
20314;SDS011;10315;50.958;13.080;2023-05-07T23:22:33;23.07;;;11.87;;
20314;SDS011;10315;50.958;13.080;2023-05-07T23:32:36;18.93;;;9.80;;
20314;SDS011;10315;50.958;13.080;2023-05-07T23:42:38;18.63;;;10.53;;
20314;SDS011;10315;50.958;13.080;2023-05-07T23:52:40;18.97;;;10.23;;
